Atlantic City, Wyoming
Current Conditions -  °F | °C
As of 10:15 AM on Friday 28 Nov 2014 (Local Time) from KFWZ Reporting Station
Broken Clouds Broken Clouds  
Wind Chill: 29°   Ceiling: 11000
Heat Index: 39°   Visibility: 10mi
Dew Point: 16°   Wind: 21mph
Humidity: 39%   Direction: 250°WSW
Pressure: 29.94"   Gusts: 29mph
Location:  42.6143°N, 108.586°W
Report Text: KFWZ 281715Z AUTO 25018G25KT 10SM BKN110 04/M09 A2994 RMK AO2
Loading
Personal Weather Stations






























Interactive Weather Map New forecast layout! Learn more

10-Day Weather Forecast

Advertisements
Track Severe Weather on mobile